sensor_id;sensor_type;location;lat;lon;timestamp;P1;durP1;ratioP1;P2;durP2;ratioP2
2259;SDS011;333;48.800;9.530;2023-12-07T00:00:28;0.00;;;0.00;;
2259;SDS011;333;48.800;9.530;2023-12-07T00:02:55;0.00;;;0.00;;
2259;SDS011;333;48.800;9.530;2023-12-07T00:05:22;0.00;;;0.00;;
2259;SDS011;333;48.800;9.530;2023-12-07T00:07:50;0.00;;;0.00;;
2259;SDS011;333;48.800;9.530;2023-12-07T00:10:17;0.00;;;0.00;;
2259;SDS011;333;48.800;9.530;2023-12-07T00:12:44;0.00;;;0.00;;
2259;SDS011;333;48.800;9.530;2023-12-07T00:15:11;0.00;;;0.00;;
2259;SDS011;333;48.800;9.530;2023-12-07T00:17:38;0.00;;;0.00;;
2259;SDS011;333;48.800;9.530;2023-12-07T00:20:06;0.00;;;0.00;;
2259;SDS011;333;48.800;9.530;2023-12-07T00:22:33;0.00;;;0.00;;
2259;SDS011;333;48.800;9.530;2023-12-07T00:25:02;0.00;;;0.00;;
2259;SDS011;333;48.800;9.530;2023-12-07T00:27:29;0.00;;;0.00;;
2259;SDS011;333;48.800;9.530;2023-12-07T00:29:56;0.00;;;0.00;;
2259;SDS011;333;48.800;9.530;2023-12-07T00:32:23;0.00;;;0.00;;
2259;SDS011;333;48.800;9.530;2023-12-07T00:34:51;0.00;;;0.00;;
2259;SDS011;333;48.800;9.530;2023-12-07T00:37:18;0.00;;;0.00;;
2259;SDS011;333;48.800;9.530;2023-12-07T00:39:45;0.00;;;0.00;;
2259;SDS011;333;48.800;9.530;2023-12-07T00:42:13;0.00;;;0.00;;
2259;SDS011;333;48.800;9.530;2023-12-07T00:44:40;0.00;;;0.00;;
2259;SDS011;333;48.800;9.530;2023-12-07T00:47:07;0.00;;;0.00;;
2259;SDS011;333;48.800;9.530;2023-12-07T00:49:37;0.00;;;0.00;;
2259;SDS011;333;48.800;9.530;2023-12-07T00:52:04;0.00;;;0.00;;
2259;SDS011;333;48.800;9.530;2023-12-07T00:54:32;0.00;;;0.00;;
2259;SDS011;333;48.800;9.530;2023-12-07T00:56:59;0.00;;;0.00;;
2259;SDS011;333;48.800;9.530;2023-12-07T00:59:28;0.00;;;0.00;;
2259;SDS011;333;48.800;9.530;2023-12-07T01:01:59;0.00;;;0.00;;
2259;SDS011;333;48.800;9.530;2023-12-07T01:04:26;0.00;;;0.00;;
2259;SDS011;333;48.800;9.530;2023-12-07T01:06:54;0.00;;;0.00;;
2259;SDS011;333;48.800;9.530;2023-12-07T01:09:21;0.00;;;0.00;;
2259;SDS011;333;48.800;9.530;2023-12-07T01:11:48;0.00;;;0.00;;
2259;SDS011;333;48.800;9.530;2023-12-07T01:14:15;0.00;;;0.00;;
2259;SDS011;333;48.800;9.530;2023-12-07T01:16:44;0.00;;;0.00;;
2259;SDS011;333;48.800;9.530;2023-12-07T01:19:11;0.00;;;0.00;;
2259;SDS011;333;48.800;9.530;2023-12-07T01:21:39;0.00;;;0.00;;
2259;SDS011;333;48.800;9.530;2023-12-07T01:24:06;0.00;;;0.00;;
2259;SDS011;333;48.800;9.530;2023-12-07T01:26:33;0.00;;;0.00;;
2259;SDS011;333;48.800;9.530;2023-12-07T01:29:00;0.00;;;0.00;;
2259;SDS011;333;48.800;9.530;2023-12-07T01:31:27;0.00;;;0.00;;
2259;SDS011;333;48.800;9.530;2023-12-07T01:33:56;0.00;;;0.00;;
2259;SDS011;333;48.800;9.530;2023-12-07T01:36:23;0.00;;;0.00;;
2259;SDS011;333;48.800;9.530;2023-12-07T01:38:50;0.00;;;0.00;;
2259;SDS011;333;48.800;9.530;2023-12-07T01:41:17;0.00;;;0.00;;
2259;SDS011;333;48.800;9.530;2023-12-07T01:43:45;0.00;;;0.00;;
2259;SDS011;333;48.800;9.530;2023-12-07T01:46:12;0.00;;;0.00;;
2259;SDS011;333;48.800;9.530;2023-12-07T01:48:40;0.00;;;0.00;;
2259;SDS011;333;48.800;9.530;2023-12-07T01:51:08;0.00;;;0.00;;
2259;SDS011;333;48.800;9.530;2023-12-07T01:53:37;0.00;;;0.00;;
2259;SDS011;333;48.800;9.530;2023-12-07T01:56:06;0.00;;;0.00;;
2259;SDS011;333;48.800;9.530;2023-12-07T01:58:35;0.00;;;0.00;;
2259;SDS011;333;48.800;9.530;2023-12-07T02:01:03;0.00;;;0.00;;
2259;SDS011;333;48.800;9.530;2023-12-07T02:03:31;0.00;;;0.00;;
2259;SDS011;333;48.800;9.530;2023-12-07T02:05:58;0.00;;;0.00;;
2259;SDS011;333;48.800;9.530;2023-12-07T02:08:27;0.00;;;0.00;;
2259;SDS011;333;48.800;9.530;2023-12-07T02:10:54;0.00;;;0.00;;
2259;SDS011;333;48.800;9.530;2023-12-07T02:13:21;0.00;;;0.00;;
2259;SDS011;333;48.800;9.530;2023-12-07T02:15:49;0.00;;;0.00;;
2259;SDS011;333;48.800;9.530;2023-12-07T02:18:19;0.00;;;0.00;;
2259;SDS011;333;48.800;9.530;2023-12-07T02:20:53;0.00;;;0.00;;
2259;SDS011;333;48.800;9.530;2023-12-07T02:23:29;0.00;;;0.00;;
2259;SDS011;333;48.800;9.530;2023-12-07T02:26:03;0.00;;;0.00;;
2259;SDS011;333;48.800;9.530;2023-12-07T02:28:34;0.00;;;0.00;;
2259;SDS011;333;48.800;9.530;2023-12-07T02:31:01;0.00;;;0.00;;
2259;SDS011;333;48.800;9.530;2023-12-07T02:36:14;0.00;;;0.00;;
2259;SDS011;333;48.800;9.530;2023-12-07T02:38:45;0.00;;;0.00;;
2259;SDS011;333;48.800;9.530;2023-12-07T02:41:15;0.00;;;0.00;;
2259;SDS011;333;48.800;9.530;2023-12-07T02:43:44;0.00;;;0.00;;
2259;SDS011;333;48.800;9.530;2023-12-07T02:46:11;0.00;;;0.00;;
2259;SDS011;333;48.800;9.530;2023-12-07T02:48:38;0.00;;;0.00;;
2259;SDS011;333;48.800;9.530;2023-12-07T02:51:05;0.00;;;0.00;;
2259;SDS011;333;48.800;9.530;2023-12-07T02:53:33;0.00;;;0.00;;
2259;SDS011;333;48.800;9.530;2023-12-07T02:56:00;0.00;;;0.00;;
2259;SDS011;333;48.800;9.530;2023-12-07T02:58:27;0.00;;;0.00;;
2259;SDS011;333;48.800;9.530;2023-12-07T03:00:56;0.00;;;0.00;;
2259;SDS011;333;48.800;9.530;2023-12-07T03:03:24;0.00;;;0.00;;
2259;SDS011;333;48.800;9.530;2023-12-07T03:05:51;0.00;;;0.00;;
2259;SDS011;333;48.800;9.530;2023-12-07T03:08:18;0.00;;;0.00;;
2259;SDS011;333;48.800;9.530;2023-12-07T03:10:45;0.00;;;0.00;;
2259;SDS011;333;48.800;9.530;2023-12-07T03:13:12;0.00;;;0.00;;
2259;SDS011;333;48.800;9.530;2023-12-07T03:15:39;0.00;;;0.00;;
2259;SDS011;333;48.800;9.530;2023-12-07T03:18:07;0.00;;;0.00;;
2259;SDS011;333;48.800;9.530;2023-12-07T03:20:34;0.00;;;0.00;;
2259;SDS011;333;48.800;9.530;2023-12-07T03:23:01;0.00;;;0.00;;
2259;SDS011;333;48.800;9.530;2023-12-07T03:25:29;0.00;;;0.00;;
2259;SDS011;333;48.800;9.530;2023-12-07T03:27:56;0.00;;;0.00;;
2259;SDS011;333;48.800;9.530;2023-12-07T03:30:23;0.00;;;0.00;;
2259;SDS011;333;48.800;9.530;2023-12-07T03:32:50;0.00;;;0.00;;
2259;SDS011;333;48.800;9.530;2023-12-07T03:35:18;0.00;;;0.00;;
2259;SDS011;333;48.800;9.530;2023-12-07T03:37:45;0.00;;;0.00;;
2259;SDS011;333;48.800;9.530;2023-12-07T03:40:12;0.00;;;0.00;;
2259;SDS011;333;48.800;9.530;2023-12-07T03:42:39;0.00;;;0.00;;
2259;SDS011;333;48.800;9.530;2023-12-07T03:45:07;0.00;;;0.00;;
2259;SDS011;333;48.800;9.530;2023-12-07T03:47:34;0.00;;;0.00;;
2259;SDS011;333;48.800;9.530;2023-12-07T03:50:01;0.00;;;0.00;;
2259;SDS011;333;48.800;9.530;2023-12-07T03:52:30;0.00;;;0.00;;
2259;SDS011;333;48.800;9.530;2023-12-07T03:54:57;0.00;;;0.00;;
2259;SDS011;333;48.800;9.530;2023-12-07T03:57:24;0.00;;;0.00;;
2259;SDS011;333;48.800;9.530;2023-12-07T03:59:51;0.00;;;0.00;;
2259;SDS011;333;48.800;9.530;2023-12-07T04:02:18;0.00;;;0.00;;
2259;SDS011;333;48.800;9.530;2023-12-07T04:04:45;0.00;;;0.00;;
2259;SDS011;333;48.800;9.530;2023-12-07T04:07:12;0.00;;;0.00;;
2259;SDS011;333;48.800;9.530;2023-12-07T04:09:41;0.00;;;0.00;;
2259;SDS011;333;48.800;9.530;2023-12-07T04:12:08;0.00;;;0.00;;
2259;SDS011;333;48.800;9.530;2023-12-07T04:14:35;0.00;;;0.00;;
2259;SDS011;333;48.800;9.530;2023-12-07T04:17:02;0.00;;;0.00;;
2259;SDS011;333;48.800;9.530;2023-12-07T04:19:29;0.00;;;0.00;;
2259;SDS011;333;48.800;9.530;2023-12-07T04:21:56;0.00;;;0.00;;
2259;SDS011;333;48.800;9.530;2023-12-07T04:24:23;0.00;;;0.00;;
2259;SDS011;333;48.800;9.530;2023-12-07T04:26:51;0.00;;;0.00;;
2259;SDS011;333;48.800;9.530;2023-12-07T04:29:18;0.00;;;0.00;;
2259;SDS011;333;48.800;9.530;2023-12-07T04:31:45;0.00;;;0.00;;
2259;SDS011;333;48.800;9.530;2023-12-07T04:34:12;0.00;;;0.00;;
2259;SDS011;333;48.800;9.530;2023-12-07T04:36:39;0.00;;;0.00;;
2259;SDS011;333;48.800;9.530;2023-12-07T04:39:06;0.00;;;0.00;;
2259;SDS011;333;48.800;9.530;2023-12-07T04:41:34;0.00;;;0.00;;
2259;SDS011;333;48.800;9.530;2023-12-07T04:44:02;0.00;;;0.00;;
2259;SDS011;333;48.800;9.530;2023-12-07T04:46:29;0.00;;;0.00;;
2259;SDS011;333;48.800;9.530;2023-12-07T04:48:56;0.00;;;0.00;;
2259;SDS011;333;48.800;9.530;2023-12-07T04:51:23;0.00;;;0.00;;
2259;SDS011;333;48.800;9.530;2023-12-07T04:53:50;0.00;;;0.00;;
2259;SDS011;333;48.800;9.530;2023-12-07T04:56:17;0.00;;;0.00;;
2259;SDS011;333;48.800;9.530;2023-12-07T04:58:44;0.00;;;0.00;;
2259;SDS011;333;48.800;9.530;2023-12-07T05:01:12;0.00;;;0.00;;
2259;SDS011;333;48.800;9.530;2023-12-07T05:03:39;0.00;;;0.00;;
2259;SDS011;333;48.800;9.530;2023-12-07T05:06:06;0.00;;;0.00;;
2259;SDS011;333;48.800;9.530;2023-12-07T05:08:33;0.00;;;0.00;;
2259;SDS011;333;48.800;9.530;2023-12-07T05:11:00;0.00;;;0.00;;
2259;SDS011;333;48.800;9.530;2023-12-07T05:13:27;0.00;;;0.00;;
2259;SDS011;333;48.800;9.530;2023-12-07T05:15:54;0.00;;;0.00;;
2259;SDS011;333;48.800;9.530;2023-12-07T05:18:23;0.00;;;0.00;;
2259;SDS011;333;48.800;9.530;2023-12-07T05:20:50;0.00;;;0.00;;
2259;SDS011;333;48.800;9.530;2023-12-07T05:23:17;0.00;;;0.00;;
2259;SDS011;333;48.800;9.530;2023-12-07T05:25:44;0.00;;;0.00;;
2259;SDS011;333;48.800;9.530;2023-12-07T05:28:12;0.00;;;0.00;;
2259;SDS011;333;48.800;9.530;2023-12-07T05:30:39;0.00;;;0.00;;
2259;SDS011;333;48.800;9.530;2023-12-07T05:33:06;0.00;;;0.00;;
2259;SDS011;333;48.800;9.530;2023-12-07T05:35:35;0.00;;;0.00;;
2259;SDS011;333;48.800;9.530;2023-12-07T05:38:02;0.00;;;0.00;;
2259;SDS011;333;48.800;9.530;2023-12-07T05:40:29;0.00;;;0.00;;
2259;SDS011;333;48.800;9.530;2023-12-07T05:42:57;0.00;;;0.00;;
2259;SDS011;333;48.800;9.530;2023-12-07T05:45:24;0.00;;;0.00;;
2259;SDS011;333;48.800;9.530;2023-12-07T05:47:51;0.00;;;0.00;;
2259;SDS011;333;48.800;9.530;2023-12-07T05:50:18;0.00;;;0.00;;
2259;SDS011;333;48.800;9.530;2023-12-07T05:52:47;0.00;;;0.00;;
2259;SDS011;333;48.800;9.530;2023-12-07T05:55:14;0.00;;;0.00;;
2259;SDS011;333;48.800;9.530;2023-12-07T05:57:41;0.00;;;0.00;;
2259;SDS011;333;48.800;9.530;2023-12-07T06:00:12;0.00;;;0.00;;
2259;SDS011;333;48.800;9.530;2023-12-07T06:02:41;0.00;;;0.00;;
2259;SDS011;333;48.800;9.530;2023-12-07T06:05:08;0.00;;;0.00;;
2259;SDS011;333;48.800;9.530;2023-12-07T06:07:36;0.10;;;0.10;;
2259;SDS011;333;48.800;9.530;2023-12-07T06:10:04;0.00;;;0.00;;
2259;SDS011;333;48.800;9.530;2023-12-07T06:12:32;0.00;;;0.00;;
2259;SDS011;333;48.800;9.530;2023-12-07T06:14:59;0.00;;;0.00;;
2259;SDS011;333;48.800;9.530;2023-12-07T06:17:26;0.10;;;0.10;;
2259;SDS011;333;48.800;9.530;2023-12-07T06:19:53;0.20;;;0.20;;
2259;SDS011;333;48.800;9.530;2023-12-07T06:22:20;0.30;;;0.30;;
2259;SDS011;333;48.800;9.530;2023-12-07T06:24:47;0.30;;;0.30;;
2259;SDS011;333;48.800;9.530;2023-12-07T06:27:16;0.73;;;0.73;;
2259;SDS011;333;48.800;9.530;2023-12-07T06:29:43;0.10;;;0.10;;
2259;SDS011;333;48.800;9.530;2023-12-07T06:32:10;0.40;;;0.40;;
2259;SDS011;333;48.800;9.530;2023-12-07T06:34:39;0.30;;;0.30;;
2259;SDS011;333;48.800;9.530;2023-12-07T06:37:06;0.30;;;0.30;;
2259;SDS011;333;48.800;9.530;2023-12-07T06:39:35;0.20;;;0.20;;
2259;SDS011;333;48.800;9.530;2023-12-07T06:42:02;0.70;;;0.70;;
2259;SDS011;333;48.800;9.530;2023-12-07T06:44:31;0.50;;;0.50;;
2259;SDS011;333;48.800;9.530;2023-12-07T06:46:58;0.43;;;0.43;;
2259;SDS011;333;48.800;9.530;2023-12-07T06:49:28;0.13;;;0.13;;
2259;SDS011;333;48.800;9.530;2023-12-07T06:51:55;0.43;;;0.43;;
2259;SDS011;333;48.800;9.530;2023-12-07T06:54:22;1.17;;;1.17;;
2259;SDS011;333;48.800;9.530;2023-12-07T06:56:49;1.77;;;1.67;;
2259;SDS011;333;48.800;9.530;2023-12-07T06:59:16;0.87;;;0.87;;
2259;SDS011;333;48.800;9.530;2023-12-07T07:01:45;0.10;;;0.10;;
2259;SDS011;333;48.800;9.530;2023-12-07T07:04:12;0.30;;;0.30;;
2259;SDS011;333;48.800;9.530;2023-12-07T07:06:39;0.30;;;0.30;;
2259;SDS011;333;48.800;9.530;2023-12-07T07:09:07;0.40;;;0.40;;
2259;SDS011;333;48.800;9.530;2023-12-07T07:11:34;0.63;;;0.63;;
2259;SDS011;333;48.800;9.530;2023-12-07T07:14:02;0.87;;;0.87;;
2259;SDS011;333;48.800;9.530;2023-12-07T07:16:29;0.33;;;0.33;;
2259;SDS011;333;48.800;9.530;2023-12-07T07:18:58;0.20;;;0.20;;
2259;SDS011;333;48.800;9.530;2023-12-07T07:21:25;0.10;;;0.10;;
2259;SDS011;333;48.800;9.530;2023-12-07T07:23:52;0.50;;;0.50;;
2259;SDS011;333;48.800;9.530;2023-12-07T07:26:19;0.83;;;0.83;;
2259;SDS011;333;48.800;9.530;2023-12-07T07:28:46;0.67;;;0.67;;
2259;SDS011;333;48.800;9.530;2023-12-07T07:31:13;0.73;;;0.73;;
2259;SDS011;333;48.800;9.530;2023-12-07T07:33:40;0.40;;;0.40;;
2259;SDS011;333;48.800;9.530;2023-12-07T07:36:09;0.53;;;0.53;;
2259;SDS011;333;48.800;9.530;2023-12-07T07:38:36;0.00;;;0.00;;
2259;SDS011;333;48.800;9.530;2023-12-07T07:41:04;0.00;;;0.00;;
2259;SDS011;333;48.800;9.530;2023-12-07T07:43:31;0.30;;;0.30;;
2259;SDS011;333;48.800;9.530;2023-12-07T07:45:59;0.10;;;0.10;;
2259;SDS011;333;48.800;9.530;2023-12-07T07:48:26;0.00;;;0.00;;
2259;SDS011;333;48.800;9.530;2023-12-07T07:50:53;0.27;;;0.27;;
2259;SDS011;333;48.800;9.530;2023-12-07T07:53:21;0.20;;;0.20;;
2259;SDS011;333;48.800;9.530;2023-12-07T07:55:48;0.20;;;0.20;;
2259;SDS011;333;48.800;9.530;2023-12-07T07:58:15;0.40;;;0.40;;
2259;SDS011;333;48.800;9.530;2023-12-07T08:00:42;0.20;;;0.20;;
2259;SDS011;333;48.800;9.530;2023-12-07T08:03:11;0.00;;;0.00;;
2259;SDS011;333;48.800;9.530;2023-12-07T08:08:42;0.33;;;0.33;;
2259;SDS011;333;48.800;9.530;2023-12-07T08:11:10;0.27;;;0.27;;
2259;SDS011;333;48.800;9.530;2023-12-07T08:13:37;0.10;;;0.10;;
2259;SDS011;333;48.800;9.530;2023-12-07T08:16:14;0.00;;;0.00;;
2259;SDS011;333;48.800;9.530;2023-12-07T08:18:41;0.40;;;0.40;;
2259;SDS011;333;48.800;9.530;2023-12-07T08:21:09;0.10;;;0.10;;
2259;SDS011;333;48.800;9.530;2023-12-07T08:23:47;0.30;;;0.30;;
2259;SDS011;333;48.800;9.530;2023-12-07T08:26:14;0.00;;;0.00;;
2259;SDS011;333;48.800;9.530;2023-12-07T08:28:41;0.00;;;0.00;;
2259;SDS011;333;48.800;9.530;2023-12-07T08:31:09;0.30;;;0.30;;
2259;SDS011;333;48.800;9.530;2023-12-07T08:33:36;0.00;;;0.00;;
2259;SDS011;333;48.800;9.530;2023-12-07T08:36:04;0.00;;;0.00;;
2259;SDS011;333;48.800;9.530;2023-12-07T08:38:33;0.30;;;0.30;;
2259;SDS011;333;48.800;9.530;2023-12-07T08:41:01;0.00;;;0.00;;
2259;SDS011;333;48.800;9.530;2023-12-07T08:43:29;0.30;;;0.30;;
2259;SDS011;333;48.800;9.530;2023-12-07T08:45:56;0.00;;;0.00;;
2259;SDS011;333;48.800;9.530;2023-12-07T08:48:23;0.13;;;0.13;;
2259;SDS011;333;48.800;9.530;2023-12-07T08:50:50;0.00;;;0.00;;
2259;SDS011;333;48.800;9.530;2023-12-07T08:53:17;0.07;;;0.07;;
2259;SDS011;333;48.800;9.530;2023-12-07T08:55:44;0.00;;;0.00;;
2259;SDS011;333;48.800;9.530;2023-12-07T08:58:13;0.20;;;0.20;;
2259;SDS011;333;48.800;9.530;2023-12-07T09:00:39;0.10;;;0.10;;
2259;SDS011;333;48.800;9.530;2023-12-07T09:03:06;0.10;;;0.10;;
2259;SDS011;333;48.800;9.530;2023-12-07T09:05:32;0.20;;;0.20;;
2259;SDS011;333;48.800;9.530;2023-12-07T09:07:59;0.10;;;0.10;;
2259;SDS011;333;48.800;9.530;2023-12-07T09:10:26;0.10;;;0.10;;
2259;SDS011;333;48.800;9.530;2023-12-07T09:12:54;0.10;;;0.10;;
2259;SDS011;333;48.800;9.530;2023-12-07T09:15:22;0.10;;;0.10;;
2259;SDS011;333;48.800;9.530;2023-12-07T09:17:49;0.00;;;0.00;;
2259;SDS011;333;48.800;9.530;2023-12-07T09:20:16;0.03;;;0.03;;
2259;SDS011;333;48.800;9.530;2023-12-07T09:22:44;0.27;;;0.27;;
2259;SDS011;333;48.800;9.530;2023-12-07T09:25:11;0.10;;;0.10;;
2259;SDS011;333;48.800;9.530;2023-12-07T09:27:39;0.20;;;0.20;;
2259;SDS011;333;48.800;9.530;2023-12-07T09:30:06;0.33;;;0.33;;
2259;SDS011;333;48.800;9.530;2023-12-07T09:32:37;0.07;;;0.07;;
2259;SDS011;333;48.800;9.530;2023-12-07T09:35:04;0.00;;;0.00;;
2259;SDS011;333;48.800;9.530;2023-12-07T09:37:32;0.10;;;0.10;;
2259;SDS011;333;48.800;9.530;2023-12-07T09:39:59;0.20;;;0.20;;
2259;SDS011;333;48.800;9.530;2023-12-07T09:42:26;0.40;;;0.40;;
2259;SDS011;333;48.800;9.530;2023-12-07T09:44:54;0.00;;;0.00;;
2259;SDS011;333;48.800;9.530;2023-12-07T09:47:21;0.00;;;0.00;;
2259;SDS011;333;48.800;9.530;2023-12-07T09:49:49;0.00;;;0.00;;
2259;SDS011;333;48.800;9.530;2023-12-07T09:52:16;0.10;;;0.10;;
2259;SDS011;333;48.800;9.530;2023-12-07T09:54:47;0.00;;;0.00;;
2259;SDS011;333;48.800;9.530;2023-12-07T09:57:15;0.00;;;0.00;;
2259;SDS011;333;48.800;9.530;2023-12-07T09:59:42;0.10;;;0.10;;
2259;SDS011;333;48.800;9.530;2023-12-07T10:02:09;0.00;;;0.00;;
2259;SDS011;333;48.800;9.530;2023-12-07T10:04:36;0.00;;;0.00;;
2259;SDS011;333;48.800;9.530;2023-12-07T10:07:04;0.00;;;0.00;;
2259;SDS011;333;48.800;9.530;2023-12-07T10:09:34;0.00;;;0.00;;
2259;SDS011;333;48.800;9.530;2023-12-07T10:12:04;0.00;;;0.00;;
2259;SDS011;333;48.800;9.530;2023-12-07T10:14:32;0.00;;;0.00;;
2259;SDS011;333;48.800;9.530;2023-12-07T10:16:59;0.00;;;0.00;;
2259;SDS011;333;48.800;9.530;2023-12-07T10:19:27;0.00;;;0.00;;
2259;SDS011;333;48.800;9.530;2023-12-07T10:21:54;0.00;;;0.00;;
2259;SDS011;333;48.800;9.530;2023-12-07T10:24:24;0.00;;;0.00;;
2259;SDS011;333;48.800;9.530;2023-12-07T10:26:51;0.00;;;0.00;;
2259;SDS011;333;48.800;9.530;2023-12-07T10:29:18;0.00;;;0.00;;
2259;SDS011;333;48.800;9.530;2023-12-07T10:31:48;0.00;;;0.00;;
2259;SDS011;333;48.800;9.530;2023-12-07T10:34:17;0.00;;;0.00;;
2259;SDS011;333;48.800;9.530;2023-12-07T10:36:46;0.00;;;0.00;;
2259;SDS011;333;48.800;9.530;2023-12-07T10:39:14;0.00;;;0.00;;
2259;SDS011;333;48.800;9.530;2023-12-07T10:41:43;0.00;;;0.00;;
2259;SDS011;333;48.800;9.530;2023-12-07T10:44:13;0.00;;;0.00;;
2259;SDS011;333;48.800;9.530;2023-12-07T10:46:42;0.00;;;0.00;;
2259;SDS011;333;48.800;9.530;2023-12-07T10:49:11;0.00;;;0.00;;
2259;SDS011;333;48.800;9.530;2023-12-07T10:51:45;0.00;;;0.00;;
2259;SDS011;333;48.800;9.530;2023-12-07T10:54:16;0.00;;;0.00;;
2259;SDS011;333;48.800;9.530;2023-12-07T10:56:49;0.00;;;0.00;;
2259;SDS011;333;48.800;9.530;2023-12-07T10:59:17;0.00;;;0.00;;
2259;SDS011;333;48.800;9.530;2023-12-07T11:01:46;0.00;;;0.00;;
2259;SDS011;333;48.800;9.530;2023-12-07T11:04:14;0.00;;;0.00;;
2259;SDS011;333;48.800;9.530;2023-12-07T11:06:42;0.00;;;0.00;;
2259;SDS011;333;48.800;9.530;2023-12-07T11:09:15;0.00;;;0.00;;
2259;SDS011;333;48.800;9.530;2023-12-07T11:11:47;0.00;;;0.00;;
2259;SDS011;333;48.800;9.530;2023-12-07T11:14:19;0.00;;;0.00;;
2259;SDS011;333;48.800;9.530;2023-12-07T11:16:46;0.00;;;0.00;;
2259;SDS011;333;48.800;9.530;2023-12-07T11:22:11;0.00;;;0.00;;
2259;SDS011;333;48.800;9.530;2023-12-07T11:24:49;0.00;;;0.00;;
2259;SDS011;333;48.800;9.530;2023-12-07T11:27:21;0.00;;;0.00;;
2259;SDS011;333;48.800;9.530;2023-12-07T11:29:48;0.00;;;0.00;;
2259;SDS011;333;48.800;9.530;2023-12-07T11:32:16;0.00;;;0.00;;
2259;SDS011;333;48.800;9.530;2023-12-07T11:34:43;0.00;;;0.00;;
2259;SDS011;333;48.800;9.530;2023-12-07T11:37:13;0.00;;;0.00;;
2259;SDS011;333;48.800;9.530;2023-12-07T11:39:42;0.00;;;0.00;;
2259;SDS011;333;48.800;9.530;2023-12-07T11:42:10;0.00;;;0.00;;
2259;SDS011;333;48.800;9.530;2023-12-07T11:44:40;0.00;;;0.00;;
2259;SDS011;333;48.800;9.530;2023-12-07T11:47:10;0.00;;;0.00;;
2259;SDS011;333;48.800;9.530;2023-12-07T11:49:41;0.00;;;0.00;;
2259;SDS011;333;48.800;9.530;2023-12-07T11:52:13;0.00;;;0.00;;
2259;SDS011;333;48.800;9.530;2023-12-07T11:54:42;0.00;;;0.00;;
2259;SDS011;333;48.800;9.530;2023-12-07T11:57:11;0.00;;;0.00;;
2259;SDS011;333;48.800;9.530;2023-12-07T11:59:38;0.00;;;0.00;;
2259;SDS011;333;48.800;9.530;2023-12-07T12:02:06;0.00;;;0.00;;
2259;SDS011;333;48.800;9.530;2023-12-07T12:04:33;0.00;;;0.00;;
2259;SDS011;333;48.800;9.530;2023-12-07T12:07:01;0.00;;;0.00;;
2259;SDS011;333;48.800;9.530;2023-12-07T12:09:29;0.00;;;0.00;;
2259;SDS011;333;48.800;9.530;2023-12-07T12:11:56;0.00;;;0.00;;
2259;SDS011;333;48.800;9.530;2023-12-07T12:14:25;0.00;;;0.00;;
2259;SDS011;333;48.800;9.530;2023-12-07T12:16:54;0.00;;;0.00;;
2259;SDS011;333;48.800;9.530;2023-12-07T12:19:22;0.00;;;0.00;;
2259;SDS011;333;48.800;9.530;2023-12-07T12:21:49;0.00;;;0.00;;
2259;SDS011;333;48.800;9.530;2023-12-07T12:24:17;0.00;;;0.00;;
2259;SDS011;333;48.800;9.530;2023-12-07T12:26:44;0.00;;;0.00;;
2259;SDS011;333;48.800;9.530;2023-12-07T12:29:13;0.00;;;0.00;;
2259;SDS011;333;48.800;9.530;2023-12-07T12:31:41;0.00;;;0.00;;
2259;SDS011;333;48.800;9.530;2023-12-07T12:34:10;0.00;;;0.00;;
2259;SDS011;333;48.800;9.530;2023-12-07T12:36:39;0.00;;;0.00;;
2259;SDS011;333;48.800;9.530;2023-12-07T12:39:06;0.00;;;0.00;;
2259;SDS011;333;48.800;9.530;2023-12-07T12:41:33;0.00;;;0.00;;
2259;SDS011;333;48.800;9.530;2023-12-07T12:44:00;0.00;;;0.00;;
2259;SDS011;333;48.800;9.530;2023-12-07T12:46:27;0.00;;;0.00;;
2259;SDS011;333;48.800;9.530;2023-12-07T12:48:55;0.00;;;0.00;;
2259;SDS011;333;48.800;9.530;2023-12-07T12:51:25;0.00;;;0.00;;
2259;SDS011;333;48.800;9.530;2023-12-07T12:53:53;0.00;;;0.00;;
2259;SDS011;333;48.800;9.530;2023-12-07T12:56:21;0.00;;;0.00;;
2259;SDS011;333;48.800;9.530;2023-12-07T12:58:48;0.00;;;0.00;;
2259;SDS011;333;48.800;9.530;2023-12-07T13:01:15;0.00;;;0.00;;
2259;SDS011;333;48.800;9.530;2023-12-07T13:03:43;0.00;;;0.00;;
2259;SDS011;333;48.800;9.530;2023-12-07T13:06:12;0.00;;;0.00;;
2259;SDS011;333;48.800;9.530;2023-12-07T13:08:40;0.00;;;0.00;;
2259;SDS011;333;48.800;9.530;2023-12-07T13:11:08;0.00;;;0.00;;
2259;SDS011;333;48.800;9.530;2023-12-07T13:13:36;0.00;;;0.00;;
2259;SDS011;333;48.800;9.530;2023-12-07T13:16:03;0.00;;;0.00;;
2259;SDS011;333;48.800;9.530;2023-12-07T13:18:31;0.00;;;0.00;;
2259;SDS011;333;48.800;9.530;2023-12-07T13:20:58;0.00;;;0.00;;
2259;SDS011;333;48.800;9.530;2023-12-07T13:23:27;0.00;;;0.00;;
2259;SDS011;333;48.800;9.530;2023-12-07T13:25:55;0.00;;;0.00;;
2259;SDS011;333;48.800;9.530;2023-12-07T13:28:22;0.00;;;0.00;;
2259;SDS011;333;48.800;9.530;2023-12-07T13:30:49;0.00;;;0.00;;
2259;SDS011;333;48.800;9.530;2023-12-07T13:33:16;0.00;;;0.00;;
2259;SDS011;333;48.800;9.530;2023-12-07T13:35:44;0.00;;;0.00;;
2259;SDS011;333;48.800;9.530;2023-12-07T13:38:11;0.00;;;0.00;;
2259;SDS011;333;48.800;9.530;2023-12-07T13:40:38;0.00;;;0.00;;
2259;SDS011;333;48.800;9.530;2023-12-07T13:43:06;0.00;;;0.00;;
2259;SDS011;333;48.800;9.530;2023-12-07T13:45:34;0.00;;;0.00;;
2259;SDS011;333;48.800;9.530;2023-12-07T13:48:01;0.00;;;0.00;;
2259;SDS011;333;48.800;9.530;2023-12-07T13:50:28;0.00;;;0.00;;
2259;SDS011;333;48.800;9.530;2023-12-07T13:52:55;0.00;;;0.00;;
2259;SDS011;333;48.800;9.530;2023-12-07T13:55:22;0.00;;;0.00;;
2259;SDS011;333;48.800;9.530;2023-12-07T13:57:50;0.00;;;0.00;;
2259;SDS011;333;48.800;9.530;2023-12-07T14:00:19;0.00;;;0.00;;
2259;SDS011;333;48.800;9.530;2023-12-07T14:02:47;0.00;;;0.00;;
2259;SDS011;333;48.800;9.530;2023-12-07T14:05:14;0.00;;;0.00;;
2259;SDS011;333;48.800;9.530;2023-12-07T14:07:43;0.00;;;0.00;;
2259;SDS011;333;48.800;9.530;2023-12-07T14:10:11;0.00;;;0.00;;
2259;SDS011;333;48.800;9.530;2023-12-07T14:12:39;0.00;;;0.00;;
2259;SDS011;333;48.800;9.530;2023-12-07T14:15:06;0.00;;;0.00;;
2259;SDS011;333;48.800;9.530;2023-12-07T14:17:36;0.00;;;0.00;;
2259;SDS011;333;48.800;9.530;2023-12-07T14:20:11;0.00;;;0.00;;
2259;SDS011;333;48.800;9.530;2023-12-07T14:22:39;0.00;;;0.00;;
2259;SDS011;333;48.800;9.530;2023-12-07T14:25:06;0.00;;;0.00;;
2259;SDS011;333;48.800;9.530;2023-12-07T14:27:33;0.00;;;0.00;;
2259;SDS011;333;48.800;9.530;2023-12-07T14:30:01;0.00;;;0.00;;
2259;SDS011;333;48.800;9.530;2023-12-07T14:32:28;0.00;;;0.00;;
2259;SDS011;333;48.800;9.530;2023-12-07T14:34:56;0.00;;;0.00;;
2259;SDS011;333;48.800;9.530;2023-12-07T14:37:23;0.00;;;0.00;;
2259;SDS011;333;48.800;9.530;2023-12-07T14:39:50;0.00;;;0.00;;
2259;SDS011;333;48.800;9.530;2023-12-07T14:42:17;0.00;;;0.00;;
2259;SDS011;333;48.800;9.530;2023-12-07T14:44:44;0.00;;;0.00;;
2259;SDS011;333;48.800;9.530;2023-12-07T14:47:13;0.00;;;0.00;;
2259;SDS011;333;48.800;9.530;2023-12-07T14:49:40;0.00;;;0.00;;
2259;SDS011;333;48.800;9.530;2023-12-07T14:52:09;0.00;;;0.00;;
2259;SDS011;333;48.800;9.530;2023-12-07T14:54:36;0.00;;;0.00;;
2259;SDS011;333;48.800;9.530;2023-12-07T14:57:03;0.00;;;0.00;;
2259;SDS011;333;48.800;9.530;2023-12-07T14:59:33;0.00;;;0.00;;
2259;SDS011;333;48.800;9.530;2023-12-07T15:02:00;0.00;;;0.00;;
2259;SDS011;333;48.800;9.530;2023-12-07T15:04:29;0.00;;;0.00;;
2259;SDS011;333;48.800;9.530;2023-12-07T15:06:56;0.00;;;0.00;;
2259;SDS011;333;48.800;9.530;2023-12-07T15:09:26;0.00;;;0.00;;
2259;SDS011;333;48.800;9.530;2023-12-07T15:11:53;0.00;;;0.00;;
2259;SDS011;333;48.800;9.530;2023-12-07T15:14:21;0.00;;;0.00;;
2259;SDS011;333;48.800;9.530;2023-12-07T15:16:48;0.00;;;0.00;;
2259;SDS011;333;48.800;9.530;2023-12-07T15:19:16;0.00;;;0.00;;
2259;SDS011;333;48.800;9.530;2023-12-07T15:21:44;0.00;;;0.00;;
2259;SDS011;333;48.800;9.530;2023-12-07T15:24:11;0.00;;;0.00;;
2259;SDS011;333;48.800;9.530;2023-12-07T15:26:42;0.00;;;0.00;;
2259;SDS011;333;48.800;9.530;2023-12-07T15:29:10;0.00;;;0.00;;
2259;SDS011;333;48.800;9.530;2023-12-07T15:31:37;0.00;;;0.00;;
2259;SDS011;333;48.800;9.530;2023-12-07T15:34:04;0.00;;;0.00;;
2259;SDS011;333;48.800;9.530;2023-12-07T15:36:35;0.00;;;0.00;;
2259;SDS011;333;48.800;9.530;2023-12-07T15:39:02;0.00;;;0.00;;
2259;SDS011;333;48.800;9.530;2023-12-07T15:41:29;0.00;;;0.00;;